createdAt,value
2023-05-19T00:01:06.352Z,101188.53
2023-05-19T00:03:41.307Z,101181.63
2023-05-19T00:06:10.554Z,101188.53
2023-05-19T00:08:40.061Z,101190.91
2023-05-19T00:11:08.984Z,101189.00
2023-05-19T00:13:37.856Z,101183.06
2023-05-19T00:16:07.112Z,101183.69
2023-05-19T00:18:35.531Z,101179.69
2023-05-19T00:21:03.832Z,101181.41
2023-05-19T00:23:32.235Z,101177.19
2023-05-19T00:26:00.473Z,101183.56
2023-05-19T00:28:28.733Z,101172.31
2023-05-19T00:30:57.248Z,101172.13
2023-05-19T00:33:25.577Z,101173.53
2023-05-19T00:35:54.397Z,101177.56
2023-05-19T00:38:22.770Z,101178.59
2023-05-19T00:40:51.282Z,101172.56
2023-05-19T00:43:19.579Z,101175.47
2023-05-19T00:45:47.904Z,101183.00
2023-05-19T00:48:16.192Z,101178.00
2023-05-19T00:50:44.759Z,101183.91
2023-05-19T00:53:15.151Z,101180.72
2023-05-19T00:55:44.372Z,101178.03
2023-05-19T00:58:13.957Z,101181.53
2023-05-19T01:00:43.578Z,101175.94
2023-05-19T01:03:12.325Z,101181.91
2023-05-19T01:05:48.421Z,101178.56
2023-05-19T01:08:17.315Z,101184.53
2023-05-19T01:10:45.608Z,101183.28
2023-05-19T01:13:13.973Z,101176.25
2023-05-19T01:16:02.291Z,101185.81
2023-05-19T01:18:48.161Z,101190.69
2023-05-19T01:21:27.560Z,101194.75
2023-05-19T01:24:23.742Z,101187.44
2023-05-19T01:26:54.557Z,101186.69
2023-05-19T01:29:34.688Z,101188.00
2023-05-19T01:32:08.308Z,101191.44
2023-05-19T01:34:43.844Z,101192.47
2023-05-19T01:37:16.222Z,101195.88
2023-05-19T01:39:46.537Z,101196.63
2023-05-19T01:42:16.348Z,101194.56
2023-05-19T01:44:45.679Z,101196.78
2023-05-19T01:47:15.475Z,101192.44
2023-05-19T01:49:43.801Z,101198.78
2023-05-19T01:52:12.155Z,101201.84
2023-05-19T01:54:40.446Z,101206.44
2023-05-19T01:57:24.322Z,101201.13
2023-05-19T02:00:22.014Z,101212.13
2023-05-19T02:03:19.538Z,101204.25
2023-05-19T02:06:04.467Z,101207.03
2023-05-19T02:08:35.479Z,101208.88
2023-05-19T02:11:14.025Z,101206.25
2023-05-19T02:13:45.807Z,101204.88
2023-05-19T02:16:15.627Z,101208.53
2023-05-19T02:18:47.096Z,101202.63
2023-05-19T02:21:15.488Z,101217.38
2023-05-19T02:23:44.015Z,101215.22
2023-05-19T02:26:12.353Z,101217.28
2023-05-19T02:28:40.637Z,101218.56
2023-05-19T02:31:10.916Z,101222.56
2023-05-19T02:33:39.257Z,101216.75
2023-05-19T02:36:08.027Z,101218.84
2023-05-19T02:38:37.139Z,101212.06
2023-05-19T02:41:05.431Z,101219.59
2023-05-19T02:43:33.642Z,101225.47
2023-05-19T02:46:01.939Z,101216.81
2023-05-19T02:48:30.158Z,101224.16
2023-05-19T02:50:58.411Z,101227.19
2023-05-19T02:53:27.003Z,101228.63
2023-05-19T02:55:55.220Z,101236.28
2023-05-19T02:58:23.883Z,101236.66
2023-05-19T03:00:52.436Z,101241.41
2023-05-19T03:03:20.743Z,101240.22
2023-05-19T03:05:49.050Z,101242.59
2023-05-19T03:08:17.317Z,101241.00
2023-05-19T03:10:47.687Z,101252.69
2023-05-19T03:13:17.951Z,101253.88
2023-05-19T03:15:46.239Z,101248.09
2023-05-19T03:18:14.610Z,101248.25
2023-05-19T03:20:44.517Z,101256.38
2023-05-19T03:23:12.857Z,101253.44
2023-05-19T03:25:41.240Z,101253.88
2023-05-19T03:28:09.499Z,101265.00
2023-05-19T03:30:38.087Z,101259.63
2023-05-19T03:33:08.480Z,101263.25
2023-05-19T03:35:36.835Z,101263.19
2023-05-19T03:38:05.133Z,101263.25
2023-05-19T03:40:33.562Z,101260.63
2023-05-19T03:43:01.953Z,101263.53
2023-05-19T03:45:30.335Z,101263.91
2023-05-19T03:47:58.618Z,101262.38
2023-05-19T03:50:29.968Z,101260.63
2023-05-19T03:52:58.506Z,101273.31
2023-05-19T03:55:27.099Z,101263.69
2023-05-19T03:57:55.331Z,101264.84
2023-05-19T04:00:23.789Z,101269.19
2023-05-19T04:02:52.647Z,101262.88
2023-05-19T04:05:20.967Z,101269.19
2023-05-19T04:07:49.276Z,101272.72
2023-05-19T04:10:17.719Z,101276.69
2023-05-19T04:12:45.945Z,101284.03
2023-05-19T04:15:14.159Z,101291.41
2023-05-19T04:17:43.062Z,101289.59
2023-05-19T04:20:12.002Z,101291.31
2023-05-19T04:22:40.219Z,101286.75
2023-05-19T04:25:09.162Z,101284.06
2023-05-19T04:27:40.440Z,101288.72
2023-05-19T04:30:09.330Z,101282.75
2023-05-19T04:32:38.285Z,101286.81
2023-05-19T04:35:06.999Z,101288.63
2023-05-19T04:37:38.313Z,101292.16
2023-05-19T04:40:07.302Z,101296.63
2023-05-19T04:42:35.521Z,101296.50
2023-05-19T04:45:06.247Z,101294.91
2023-05-19T04:47:37.727Z,101295.31
2023-05-19T04:50:06.727Z,101299.94
2023-05-19T04:52:35.222Z,101301.63
2023-05-19T04:55:03.416Z,101298.13
2023-05-19T04:57:32.099Z,101303.75
2023-05-19T05:00:04.042Z,101294.91
2023-05-19T05:02:33.068Z,101294.00
2023-05-19T05:05:01.372Z,101294.00
2023-05-19T05:07:31.657Z,101294.91
2023-05-19T05:10:00.687Z,101303.88
2023-05-19T05:12:29.194Z,101301.34
2023-05-19T05:14:57.738Z,101301.50
2023-05-19T05:17:26.532Z,101298.00
2023-05-19T05:19:55.368Z,101293.75
2023-05-19T05:22:23.934Z,101301.03
2023-05-19T05:24:52.530Z,101299.41
2023-05-19T05:27:20.844Z,101295.09
2023-05-19T05:29:50.613Z,101303.25
2023-05-19T05:32:19.947Z,101302.47
2023-05-19T05:34:48.229Z,101300.78
2023-05-19T05:37:16.605Z,101307.13
2023-05-19T05:39:44.846Z,101310.00
2023-05-19T05:42:13.233Z,101308.28
2023-05-19T05:44:41.724Z,101312.75
2023-05-19T05:47:10.421Z,101302.06
2023-05-19T05:49:39.957Z,101312.88
2023-05-19T05:52:10.065Z,101314.75
2023-05-19T05:54:38.610Z,101318.28
2023-05-19T05:57:07.574Z,101317.34
2023-05-19T05:59:35.888Z,101320.16
2023-05-19T06:02:04.269Z,101330.03
2023-05-19T06:04:32.539Z,101330.16
2023-05-19T06:07:02.579Z,101325.94
2023-05-19T06:09:31.195Z,101326.94
2023-05-19T06:12:01.073Z,101320.78
2023-05-19T06:14:29.325Z,101326.22
2023-05-19T06:16:57.592Z,101330.81
2023-05-19T06:19:26.279Z,101332.69
2023-05-19T06:21:54.580Z,101334.63
2023-05-19T06:24:22.974Z,101339.13
2023-05-19T06:26:51.531Z,101339.19
2023-05-19T06:29:19.818Z,101339.31
2023-05-19T06:31:48.064Z,101330.50
2023-05-19T06:34:18.460Z,101334.22
2023-05-19T06:36:46.780Z,101333.53
2023-05-19T06:39:15.063Z,101334.59
2023-05-19T06:41:43.275Z,101339.94
2023-05-19T06:44:11.522Z,101323.78
2023-05-19T06:46:39.869Z,101325.78
2023-05-19T06:49:08.145Z,101321.38
2023-05-19T06:51:36.741Z,101323.13
2023-05-19T06:54:05.058Z,101328.47
2023-05-19T06:56:33.368Z,101326.84
2023-05-19T06:59:01.566Z,101330.38
2023-05-19T07:01:31.056Z,101325.91
2023-05-19T07:03:59.426Z,101326.94
2023-05-19T07:06:28.074Z,101322.53
2023-05-19T07:08:56.419Z,101326.06
2023-05-19T07:11:25.239Z,101330.56
2023-05-19T07:13:53.445Z,101327.03
2023-05-19T07:16:21.712Z,101330.56
2023-05-19T07:18:50.111Z,101339.50
2023-05-19T07:21:18.723Z,101340.47
2023-05-19T07:23:46.925Z,101336.13
2023-05-19T07:26:15.174Z,101336.13
2023-05-19T07:28:44.315Z,101337.09
2023-05-19T07:31:12.550Z,101335.31
2023-05-19T07:33:40.828Z,101339.00
2023-05-19T07:36:09.278Z,101338.22
2023-05-19T07:38:37.582Z,101334.88
2023-05-19T07:41:05.964Z,101334.09
2023-05-19T07:43:34.400Z,101335.06
2023-05-19T07:46:02.773Z,101332.47
2023-05-19T07:48:31.386Z,101331.66
2023-05-19T07:50:59.808Z,101331.84
2023-05-19T07:53:28.906Z,101333.69
2023-05-19T07:55:58.379Z,101339.16
2023-05-19T07:58:28.352Z,101335.78
2023-05-19T08:00:59.828Z,101327.78
2023-05-19T08:03:28.816Z,101326.94
2023-05-19T08:05:57.416Z,101333.22
2023-05-19T08:08:26.007Z,101326.16
2023-05-19T08:10:54.402Z,101324.59
2023-05-19T08:13:22.925Z,101321.22
2023-05-19T08:15:51.685Z,101324.00
2023-05-19T08:18:21.066Z,101328.53
2023-05-19T08:20:49.571Z,101336.56
2023-05-19T08:23:18.526Z,101322.53
2023-05-19T08:25:47.004Z,101328.03
2023-05-19T08:28:15.515Z,101338.88
2023-05-19T08:30:43.885Z,101327.41
2023-05-19T08:33:12.669Z,101327.34
2023-05-19T08:35:41.018Z,101318.41
2023-05-19T08:38:09.344Z,101315.75
2023-05-19T08:40:39.208Z,101317.53
2023-05-19T08:43:07.568Z,101313.22
2023-05-19T08:45:36.367Z,101319.63
2023-05-19T08:48:05.258Z,101324.97
2023-05-19T08:50:40.364Z,101325.94
2023-05-19T08:53:28.961Z,101325.16
2023-05-19T08:56:12.627Z,101331.50
2023-05-19T08:58:43.433Z,101331.59
2023-05-19T09:01:19.383Z,101329.97
2023-05-19T09:03:50.783Z,101336.28
2023-05-19T09:06:19.214Z,101336.47
2023-05-19T09:08:48.018Z,101341.81
2023-05-19T09:11:16.444Z,101335.72
2023-05-19T09:13:44.827Z,101338.44
2023-05-19T09:16:13.359Z,101332.22
2023-05-19T09:18:41.779Z,101331.28
2023-05-19T09:21:12.033Z,101326.75
2023-05-19T09:23:40.333Z,101332.06
2023-05-19T09:26:08.861Z,101322.28
2023-05-19T09:28:38.550Z,101330.28
2023-05-19T09:31:08.737Z,101331.16
2023-05-19T09:33:39.220Z,101328.44
2023-05-19T09:36:09.327Z,101324.94
2023-05-19T09:38:39.263Z,101329.41
2023-05-19T09:41:09.903Z,101338.41
2023-05-19T09:43:38.217Z,101338.44
2023-05-19T09:46:13.779Z,101341.22
2023-05-19T09:48:43.271Z,101332.38
2023-05-19T09:51:11.593Z,101328.94
2023-05-19T09:53:40.039Z,101323.63
2023-05-19T09:56:10.741Z,101323.75
2023-05-19T09:58:42.750Z,101316.72
2023-05-19T10:01:11.222Z,101322.91
2023-05-19T10:03:40.659Z,101321.34
2023-05-19T10:06:10.146Z,101319.59
2023-05-19T10:08:40.676Z,101325.00
2023-05-19T10:11:09.673Z,101324.28
2023-05-19T10:13:39.813Z,101325.22
2023-05-19T10:16:09.746Z,101314.78
2023-05-19T10:18:40.133Z,101307.72
2023-05-19T10:21:10.156Z,101310.41
2023-05-19T10:23:39.322Z,101312.19
2023-05-19T10:26:08.351Z,101318.44
2023-05-19T10:28:40.698Z,101318.50
2023-05-19T10:31:15.671Z,101314.16
2023-05-19T10:34:22.989Z,101311.56
2023-05-19T10:37:14.939Z,101306.38
2023-05-19T10:39:45.657Z,101303.78
2023-05-19T10:42:24.199Z,101314.53
2023-05-19T10:45:10.963Z,101311.16
2023-05-19T10:47:41.551Z,101307.69
2023-05-19T10:50:10.060Z,101312.09
2023-05-19T10:52:40.086Z,101313.94
2023-05-19T10:55:18.554Z,101306.97
2023-05-19T10:57:58.845Z,101309.69
2023-05-19T11:00:32.717Z,101312.38
2023-05-19T11:03:18.585Z,101315.16
2023-05-19T11:05:47.321Z,101313.38
2023-05-19T11:08:15.552Z,101310.72
2023-05-19T11:10:47.091Z,101313.44
2023-05-19T11:13:26.174Z,101317.09
2023-05-19T11:15:54.495Z,101312.66
2023-05-19T11:18:22.789Z,101311.00
2023-05-19T11:20:59.173Z,101318.28
2023-05-19T11:23:27.614Z,101318.34
2023-05-19T11:25:55.970Z,101318.28
2023-05-19T11:28:30.086Z,101314.72
2023-05-19T11:31:00.838Z,101320.06
2023-05-19T11:33:29.230Z,101323.59
2023-05-19T11:36:01.295Z,101327.25
2023-05-19T11:38:30.961Z,101333.63
2023-05-19T11:40:59.194Z,101330.19
2023-05-19T11:43:27.816Z,101330.13
2023-05-19T11:45:56.950Z,101328.47
2023-05-19T11:48:26.185Z,101328.59
2023-05-19T11:50:54.768Z,101331.38
2023-05-19T11:53:24.016Z,101331.41
2023-05-19T11:55:52.752Z,101336.66
2023-05-19T11:58:29.654Z,101345.50
2023-05-19T12:00:58.002Z,101349.03
2023-05-19T12:03:29.003Z,101339.38
2023-05-19T12:05:57.778Z,101352.69
2023-05-19T12:08:28.036Z,101350.03
2023-05-19T12:10:57.138Z,101348.34
2023-05-19T12:13:26.377Z,101352.81
2023-05-19T12:15:54.646Z,101351.94
2023-05-19T12:18:22.956Z,101350.16
2023-05-19T12:20:51.980Z,101361.78
2023-05-19T12:23:20.840Z,101352.94
2023-05-19T12:25:50.149Z,101344.13
2023-05-19T12:28:18.463Z,101361.84
2023-05-19T12:30:52.697Z,101361.84
2023-05-19T12:33:22.868Z,101348.56
2023-05-19T12:35:51.762Z,101350.34
2023-05-19T12:38:21.809Z,101355.59
2023-05-19T12:40:52.156Z,101366.09
2023-05-19T12:43:24.222Z,101369.63
2023-05-19T12:45:53.228Z,101373.97
2023-05-19T12:48:24.500Z,101374.75
2023-05-19T12:50:56.368Z,101386.13
2023-05-19T12:53:29.032Z,101386.09
2023-05-19T12:55:57.277Z,101387.72
2023-05-19T12:58:25.643Z,101385.72
2023-05-19T13:01:00.466Z,101396.09
2023-05-19T13:03:28.987Z,101389.75
2023-05-19T13:05:57.269Z,101387.81
2023-05-19T13:08:25.887Z,101391.16
2023-05-19T13:10:54.192Z,101398.91
2023-05-19T13:13:22.859Z,101393.50
2023-05-19T13:15:51.204Z,101397.81
2023-05-19T13:18:19.544Z,101406.56
2023-05-19T13:20:50.939Z,101418.00
2023-05-19T13:23:19.501Z,101425.91
2023-05-19T13:25:47.883Z,101418.66
2023-05-19T13:28:16.254Z,101417.66
2023-05-19T13:30:46.005Z,101421.00
2023-05-19T13:33:14.291Z,101423.56
2023-05-19T13:35:42.553Z,101424.31
2023-05-19T13:38:11.226Z,101424.22
2023-05-19T13:40:40.582Z,101434.78
2023-05-19T13:43:09.426Z,101433.94
2023-05-19T13:45:37.816Z,101438.19
2023-05-19T13:48:08.040Z,101441.63
2023-05-19T13:50:36.472Z,101440.56
2023-05-19T13:53:04.902Z,101450.97
2023-05-19T13:55:33.828Z,101448.94
2023-05-19T13:58:02.111Z,101446.97
2023-05-19T14:00:32.794Z,101454.97
2023-05-19T14:03:01.368Z,101455.91
2023-05-19T14:05:30.039Z,101463.91
2023-05-19T14:07:58.840Z,101473.56
2023-05-19T14:10:27.141Z,101476.16
2023-05-19T14:13:25.891Z,101469.81
2023-05-19T14:15:43.591Z,101478.53
2023-05-19T14:18:12.271Z,101470.53
2023-05-19T14:20:40.532Z,101473.88
2023-05-19T14:23:08.812Z,101472.00
2023-05-19T14:25:37.126Z,101474.50
2023-05-19T14:28:05.516Z,101486.69
2023-05-19T14:30:34.354Z,101492.72
2023-05-19T14:33:02.824Z,101491.78
2023-05-19T14:35:31.195Z,101486.31
2023-05-19T14:37:59.441Z,101488.88
2023-05-19T14:40:27.745Z,101498.41
2023-05-19T14:42:56.005Z,101491.22
2023-05-19T14:45:24.257Z,101494.13
2023-05-19T14:47:53.558Z,101494.31
2023-05-19T14:50:21.928Z,101494.31
2023-05-19T14:52:50.257Z,101496.03
2023-05-19T14:55:18.623Z,101504.72
2023-05-19T14:57:47.358Z,101504.56
2023-05-19T15:00:15.845Z,101506.03
2023-05-19T15:02:44.147Z,101509.38
2023-05-19T15:05:12.592Z,101506.63
2023-05-19T15:07:40.831Z,101520.59
2023-05-19T15:10:09.577Z,101515.00
2023-05-19T15:12:37.850Z,101521.91
2023-05-19T15:15:06.557Z,101526.31
2023-05-19T15:17:34.838Z,101524.41
2023-05-19T15:20:03.123Z,101521.63
2023-05-19T15:22:31.383Z,101526.75
2023-05-19T15:25:00.182Z,101525.41
2023-05-19T15:27:28.890Z,101523.25
2023-05-19T15:29:57.128Z,101541.66
2023-05-19T15:32:25.678Z,101534.41
2023-05-19T15:34:54.031Z,101531.44
2023-05-19T15:37:22.240Z,101532.06
2023-05-19T15:39:50.610Z,101544.06
2023-05-19T15:42:18.842Z,101539.75
2023-05-19T15:44:47.182Z,101536.13
2023-05-19T15:47:15.421Z,101540.28
2023-05-19T15:49:43.948Z,101545.31
2023-05-19T15:52:12.228Z,101553.09
2023-05-19T15:54:40.439Z,101552.09
2023-05-19T15:57:08.820Z,101559.06
2023-05-19T15:59:37.056Z,101555.00
2023-05-19T16:02:05.434Z,101556.50
2023-05-19T16:04:34.202Z,101555.25
2023-05-19T16:07:02.471Z,101548.09
2023-05-19T16:09:30.703Z,101555.69
2023-05-19T16:11:58.971Z,101560.34
2023-05-19T16:14:30.207Z,101557.13
2023-05-19T16:16:58.508Z,101568.75
2023-05-19T16:19:29.399Z,101564.19
2023-05-19T16:21:57.687Z,101566.75
2023-05-19T16:24:26.041Z,101570.06
2023-05-19T16:26:54.529Z,101569.56
2023-05-19T16:29:22.783Z,101575.34
2023-05-19T16:31:51.654Z,101568.59
2023-05-19T16:34:19.905Z,101568.09
2023-05-19T16:36:48.179Z,101563.22
2023-05-19T16:39:16.556Z,101571.44
2023-05-19T16:41:44.806Z,101572.59
2023-05-19T16:44:15.206Z,101572.28
2023-05-19T16:46:43.518Z,101572.94
2023-05-19T16:49:12.046Z,101568.53
2023-05-19T16:51:40.340Z,101571.06
2023-05-19T16:54:08.594Z,101569.38
2023-05-19T16:56:36.975Z,101569.97
2023-05-19T16:59:05.309Z,101568.56
2023-05-19T17:01:33.698Z,101565.53
2023-05-19T17:04:01.997Z,101571.13
2023-05-19T17:06:30.383Z,101573.88
2023-05-19T17:08:58.659Z,101576.88
2023-05-19T17:11:28.005Z,101574.50
2023-05-19T17:13:56.293Z,101572.94
2023-05-19T17:16:24.798Z,101572.38
2023-05-19T17:18:53.188Z,101569.59
2023-05-19T17:21:21.446Z,101574.03
2023-05-19T17:23:50.290Z,101576.56
2023-05-19T17:26:18.544Z,101564.28
2023-05-19T17:28:46.896Z,101569.13
2023-05-19T17:31:16.705Z,101566.94
2023-05-19T17:33:45.002Z,101571.75
2023-05-19T17:36:13.306Z,101565.38
2023-05-19T17:38:42.657Z,101566.63
2023-05-19T17:41:11.105Z,101566.19
2023-05-19T17:43:40.616Z,101554.97
2023-05-19T17:46:09.602Z,101559.63
2023-05-19T17:48:38.043Z,101560.53
2023-05-19T17:51:08.252Z,101561.69
2023-05-19T17:53:37.388Z,101560.31
2023-05-19T17:56:08.153Z,101564.88
2023-05-19T17:58:37.203Z,101563.66
2023-05-19T18:01:05.906Z,101556.59
2023-05-19T18:03:34.724Z,101562.94
2023-05-19T18:06:03.410Z,101562.53
2023-05-19T18:08:33.436Z,101564.00
2023-05-19T18:11:01.962Z,101561.91
2023-05-19T18:13:30.200Z,101563.38
2023-05-19T18:16:00.497Z,101563.00
2023-05-19T18:18:28.742Z,101555.53
2023-05-19T18:20:56.998Z,101563.81
2023-05-19T18:23:25.246Z,101562.31
2023-05-19T18:25:54.346Z,101556.00
2023-05-19T18:28:24.957Z,101551.31
2023-05-19T18:31:06.628Z,101544.69
2023-05-19T18:33:34.895Z,101538.75
2023-05-19T18:36:03.330Z,101539.28
2023-05-19T18:38:31.586Z,101540.75
2023-05-19T18:41:01.586Z,101533.22
2023-05-19T18:43:30.979Z,101530.78
2023-05-19T18:45:59.406Z,101536.88
2023-05-19T18:48:27.992Z,101532.59
2023-05-19T18:50:56.199Z,101534.22
2023-05-19T18:53:24.452Z,101527.22
2023-05-19T18:55:53.090Z,101522.38
2023-05-19T18:58:21.478Z,101523.50
2023-05-19T19:00:49.795Z,101520.16
2023-05-19T19:03:18.426Z,101511.88
2023-05-19T19:05:46.980Z,101518.88
2023-05-19T19:08:15.288Z,101516.19
2023-05-19T19:10:43.891Z,101518.28
2023-05-19T19:13:12.172Z,101522.75
2023-05-19T19:15:40.690Z,101507.31
2023-05-19T19:18:09.345Z,101509.50
2023-05-19T19:20:37.659Z,101511.09
2023-05-19T19:23:07.448Z,101515.72
2023-05-19T19:25:35.871Z,101506.97
2023-05-19T19:28:04.484Z,101510.94
2023-05-19T19:30:32.960Z,101507.50
2023-05-19T19:33:01.533Z,101504.53
2023-05-19T19:35:29.841Z,101503.84
2023-05-19T19:37:59.502Z,101506.47
2023-05-19T19:40:27.867Z,101512.81
2023-05-19T19:42:56.340Z,101505.88
2023-05-19T19:45:24.620Z,101517.59
2023-05-19T19:47:53.372Z,101513.47
2023-05-19T19:50:22.636Z,101520.41
2023-05-19T19:52:51.052Z,101514.47
2023-05-19T19:55:19.327Z,101513.09
2023-05-19T19:57:49.970Z,101521.22
2023-05-19T20:00:19.030Z,101525.50
2023-05-19T20:03:03.468Z,101521.25
2023-05-19T20:05:33.344Z,101538.16
2023-05-19T20:08:01.798Z,101533.53
2023-05-19T20:10:30.098Z,101528.22
2023-05-19T20:12:59.983Z,101524.31
2023-05-19T20:15:28.268Z,101525.84
2023-05-19T20:17:56.589Z,101529.63
2023-05-19T20:20:24.910Z,101535.38
2023-05-19T20:22:53.162Z,101531.28
2023-05-19T20:25:21.759Z,101543.94
2023-05-19T20:27:50.242Z,101550.09
2023-05-19T20:30:18.727Z,101548.03
2023-05-19T20:32:47.429Z,101551.41
2023-05-19T20:35:15.936Z,101548.34
2023-05-19T20:37:44.174Z,101554.94
2023-05-19T20:40:12.714Z,101550.84
2023-05-19T20:42:41.835Z,101550.72
2023-05-19T20:45:10.393Z,101552.19
2023-05-19T20:47:39.017Z,101550.94
2023-05-19T20:50:07.734Z,101563.75
2023-05-19T20:52:36.021Z,101559.53
2023-05-19T20:55:04.574Z,101554.47
2023-05-19T20:57:33.116Z,101564.19
2023-05-19T21:00:01.517Z,101567.59
2023-05-19T21:02:29.803Z,101562.88
2023-05-19T21:04:58.119Z,101562.75
2023-05-19T21:07:26.786Z,101563.22
2023-05-19T21:09:55.256Z,101568.47
2023-05-19T21:12:25.966Z,101565.78
2023-05-19T21:14:54.269Z,101564.09
2023-05-19T21:17:22.578Z,101565.44
2023-05-19T21:19:50.926Z,101555.84
2023-05-19T21:22:19.226Z,101561.81
2023-05-19T21:24:47.553Z,101558.31
2023-05-19T21:27:15.821Z,101566.75
2023-05-19T21:29:44.072Z,101576.47
2023-05-19T21:32:12.336Z,101574.75
2023-05-19T21:34:40.647Z,101577.13
2023-05-19T21:37:08.892Z,101572.91
2023-05-19T21:39:37.160Z,101577.25
2023-05-19T21:42:05.706Z,101572.31
2023-05-19T21:44:34.020Z,101577.41
2023-05-19T21:47:02.278Z,101569.94
2023-05-19T21:49:30.720Z,101565.97
2023-05-19T21:51:58.978Z,101561.84
2023-05-19T21:54:27.338Z,101552.63
2023-05-19T21:56:55.563Z,101560.44
2023-05-19T21:59:25.494Z,101563.16
2023-05-19T22:01:54.101Z,101556.63
2023-05-19T22:04:23.451Z,101558.44
2023-05-19T22:06:52.036Z,101558.66
2023-05-19T22:09:20.305Z,101569.84
2023-05-19T22:11:48.617Z,101558.22
2023-05-19T22:14:19.162Z,101558.16
2023-05-19T22:16:48.382Z,101558.66
2023-05-19T22:19:16.970Z,101551.38
2023-05-19T22:21:45.260Z,101555.22
2023-05-19T22:24:13.501Z,101550.06
2023-05-19T22:26:43.654Z,101550.88
2023-05-19T22:29:15.981Z,101560.97
2023-05-19T22:31:44.292Z,101556.38
2023-05-19T22:34:16.259Z,101546.78
2023-05-19T22:36:46.803Z,101545.63
2023-05-19T22:39:15.234Z,101548.31
2023-05-19T22:41:43.482Z,101551.88
2023-05-19T22:44:13.876Z,101545.16
2023-05-19T22:46:42.204Z,101542.78
2023-05-19T22:49:10.476Z,101535.13
2023-05-19T22:51:40.131Z,101539.72
2023-05-19T22:54:08.674Z,101539.63
2023-05-19T22:56:37.138Z,101536.97
2023-05-19T22:59:05.645Z,101540.78
2023-05-19T23:01:33.994Z,101546.63
2023-05-19T23:04:02.380Z,101540.25
2023-05-19T23:06:30.650Z,101535.69
2023-05-19T23:09:03.438Z,101537.34
2023-05-19T23:11:32.044Z,101534.50
2023-05-19T23:14:00.266Z,101531.50
2023-05-19T23:16:28.617Z,101536.91
2023-05-19T23:18:57.009Z,101526.41
2023-05-19T23:21:25.414Z,101523.63
2023-05-19T23:23:53.672Z,101530.19
2023-05-19T23:26:22.509Z,101518.28
2023-05-19T23:28:51.539Z,101513.41
2023-05-19T23:31:19.918Z,101507.75
2023-05-19T23:33:48.233Z,101502.97
2023-05-19T23:36:17.484Z,101496.78
2023-05-19T23:38:45.745Z,101507.53
2023-05-19T23:41:14.066Z,101513.00
2023-05-19T23:43:42.342Z,101516.59
2023-05-19T23:46:10.691Z,101520.50
2023-05-19T23:48:38.985Z,101523.13
2023-05-19T23:51:07.340Z,101521.06
2023-05-19T23:53:35.631Z,101529.81
2023-05-19T23:56:03.995Z,101514.03
2023-05-19T23:58:32.226Z,101508.25
